Sunday, January 20, 2019, 1:58 AM EST
Back to Local

KPEO, Penn Yan Airport

Location: Penn Yan, NY, United States Lat: 42.65
Local Time: 1:58 AM EST ( 6:58 GMT) Lon: -77.05
Time Zone: US/Eastern Elev: 977 ft

Show me the last for .
Show Decoded

2019-01-20 01:11 METAR KPEO 200611Z AUTO VRB04KT 3/4SM -SN BR VV009 M08/M10 A2968 RMK AO2 P0001
                 T10831100 RVRNO =
2019-01-20 00:53 METAR KPEO 200553Z AUTO VRB03KT 1SM -SN BR VV011 M08/M10 A2970 RMK AO2 SLP074
                 P0004 60032 T10831100 11083 21106 58047 RVRNO =
2019-01-20 00:36 METAR KPEO 200536Z AUTO VRB04KT 3/4SM -SN BR VV013 M08/M10 A2970 RMK AO2 P0003
                 T10831100 RVRNO =
2019-01-20 00:21 METAR KPEO 200521Z AUTO 36003KT 1 1/4SM -SN BR OVC015 M08/M11 A2971 RMK AO2
                 PRESFR P0002 T10831106 =
2019-01-19 23:53 METAR KPEO 200453Z AUTO 00000KT 1SM -SN BR VV010 M09/M11 A2975 RMK AO2 SLP092
                 P0006 T10891106 410221111 RVRNO =
2019-01-19 23:00 METAR KPEO 200400Z AUTO VRB03KT 3/4SM -SN BR VV006 M09/M11 A2978 RMK AO2 P0001
                 T10941111 RVRNO =
2019-01-19 22:53 METAR KPEO 200353Z AUTO VRB04KT 1/2SM SN FZFG VV005 M09/M12 A2979 RMK AO2 SLP106
                 P0007 T10941117 RVRNO =
2019-01-19 22:44 METAR KPEO 200344Z AUTO 00000KT 1/2SM SN FZFG VV005 M09/M12 A2980 RMK AO2 P0006
                 T10941117 RVRNO =
2019-01-19 21:53 METAR KPEO 200253Z AUTO 34003KT 3/4SM -SN BR VV009 M10/M12 A2984 RMK AO2 SLP123
                 P0005 60015 T11001117 56030 RVRNO =
2019-01-19 21:50 METAR KPEO 200250Z AUTO 00000KT 3/4SM -SN BR VV009 M10/M12 A2984 RMK AO2 P0004
                 RVRNO =
2019-01-19 21:37 METAR KPEO 200237Z AUTO 00000KT 3/4SM -SN BR VV010 M10/M12 A2984 RMK AO2 P0003
                 T11001122 RVRNO =
2019-01-19 21:05 METAR KPEO 200205Z AUTO 36003KT 1SM -SN BR VV010 M11/M12 A2987 RMK AO2 P0001
                 T11061122 RVRNO =
2019-01-19 20:53 METAR KPEO 200153Z AUTO 00000KT 3/4SM -SN BR VV009 M11/M12 A2988 RMK AO2 SLP137
                 P0005 T11061122 RVRNO =
2019-01-19 19:53 METAR KPEO 200053Z AUTO 00000KT 3/4SM -SN BR VV008 M11/M13 A2993 RMK AO2 SLP155
                 P0005 T11061128 RVRNO =
2019-01-19 19:09 METAR KPEO 200009Z AUTO 00000KT 3/4SM -SN BR VV009 M11/M12 A2996 RMK AO2 P0001
                 T11061122 RVRNO =
2019-01-19 18:53 METAR KPEO 192353Z AUTO VRB03KT 3/4SM -SN BR VV010 M11/M13 A2997 RMK AO2 SLP167
                 P0003 60013 T11061128 11089 21111 58029 RVRNO =
2019-01-19 18:40 METAR KPEO 192340Z AUTO 36004KT 1SM -SN BR VV013 M11/M13 A2997 RMK AO2 P0002
                 T11061128 RVRNO =
2019-01-19 18:21 METAR KPEO 192321Z AUTO 35004KT 1 1/4SM -SN BR OVC015 M11/M13 A2999 RMK AO2
                 P0001 T11061128 =
2019-01-19 18:05 METAR KPEO 192305Z AUTO 00000KT 1 1/4SM -SN BR OVC013 M11/M13 A2999 RMK AO2
                 P0000 T11061128 =
2019-01-19 17:53 METAR KPEO 192253Z AUTO 35003KT 1 1/4SM -SN BR OVC015 M11/M13 A3000 RMK AO2
                 SLP179 P0003 T11061128 =
2019-01-19 17:43 METAR KPEO 192243Z AUTO VRB03KT 1SM -SN BR VV016 M11/M13 A3000 RMK AO2 P0002
                 T11061128 RVRNO =
2019-01-19 17:25 METAR KPEO 192225Z AUTO VRB03KT 2SM -SN BR OVC023 M11/M13 A3002 RMK AO2 P0001
                 T11061128 =
2019-01-19 16:53 METAR KPEO 192153Z AUTO VRB04KT 1SM -SN BR VV019 M11/M13 A3003 RMK AO2 SLP189
                 P0002 T11061128 RVRNO =
2019-01-19 16:04 METAR KPEO 192104Z AUTO VRB04KT 3/4SM -SN BR FEW008 OVC016 M10/M12 A3005 RMK AO2
                 P0000 T11001122 RVRNO =
2019-01-19 15:53 METAR KPEO 192053Z AUTO VRB04KT 1SM -SN BR SCT008 OVC020 M09/M12 A3006 RMK AO2
                 SLP195 P0002 60005 T10941117 56026 RVRNO =
2019-01-19 15:29 METAR KPEO 192029Z AUTO VRB06KT 1SM -SN BR FEW008 OVC017 M09/M12 A3006 RMK AO2
                 P0001 T10941117 RVRNO =
2019-01-19 15:04 METAR KPEO 192004Z AUTO 04004KT 3/4SM -SN BR FEW008 OVC015 M09/M12 A3007 RMK AO2
                 P0001 T10941117 RVRNO =
2019-01-19 14:53 METAR KPEO 191953Z AUTO 04004KT 1/2SM SN FEW008 OVC013 M09/M12 A3007 RMK AO2
                 SLP200 P0002 T10891117 RVRNO =
2019-01-19 14:41 METAR KPEO 191941Z AUTO 04004KT 3/4SM -SN BR SCT008 OVC017 M09/M11 A3008 RMK AO2
                 P0002 T10891111 RVRNO =
2019-01-19 14:20 METAR KPEO 191920Z AUTO 03005KT 1 1/4SM -SN BR FEW008 OVC025 M09/M12 A3008 RMK
                 AO2 P0001 T10941117 =
2019-01-19 14:09 METAR KPEO 191909Z AUTO VRB04KT 2SM -SN FEW007 OVC027 M09/M12 A3010 RMK AO2
                 P0000 T10891117 =
2019-01-19 13:53 METAR KPEO 191853Z AUTO 00000KT 3SM -SN FEW009 OVC027 M09/M12 A3010 RMK AO2
                 SLP210 P0001 T10941122 =
2019-01-19 13:50 METAR KPEO 191850Z AUTO 06003KT 2 1/2SM -SN BR FEW009 OVC027 M09/M12 A3011 RMK
                 AO2 P0001 =
2019-01-19 13:26 METAR KPEO 191826Z AUTO VRB04KT 1 1/2SM -SN SCT008 BKN021 OVC032 M09/M12 A3011
                 RMK AO2 P0000 T10891117 =
2019-01-19 13:24 METAR KPEO 191824Z AUTO 00000KT 2SM -SN SCT008 SCT021 OVC032 M09/M12 A3011 RMK
                 AO2 P0000 T10891117 =
2019-01-19 13:20 METAR KPEO 191820Z AUTO VRB03KT 4SM -SN SCT008 OVC032 M09/M12 A3011 RMK AO2
                 P0000 T10941122 =
2019-01-19 12:53 METAR KPEO 191753Z AUTO VRB03KT 3SM -SN BR FEW018 OVC036 M09/M12 A3013 RMK AO2
                 PRESFR SLP221 P0000 60003 T10941117 11083 21100 58035 =
2019-01-19 12:46 METAR KPEO 191746Z AUTO VRB03KT 2SM -SN SCT016 OVC038 M09/M12 A3014 RMK AO2
                 P0000 T10941122 =
2019-01-19 12:36 METAR KPEO 191736Z AUTO 33003KT 1SM -SN BR BKN016 OVC038 M09/M12 A3015 RMK AO2
                 P0000 T10941117 RVRNO =
2019-01-19 12:28 METAR KPEO 191728Z AUTO 33004KT 3/4SM -SN BR VV014 M09/M12 A3016 RMK AO2 P0000
                 T10941117 RVRNO =
2019-01-19 12:19 METAR KPEO 191719Z AUTO 32004KT 3/4SM -SN VV015 M09/M12 A3016 RMK AO2 P0000
                 T10941122 RVRNO =
2019-01-19 11:53 METAR KPEO 191653Z AUTO VRB03KT 1 1/2SM -SN BKN025 BKN029 OVC036 M09/M12 A3017
                 RMK AO2 SLP235 P0001 T10941122 =
2019-01-19 10:53 METAR KPEO 191553Z AUTO VRB04KT 1 1/4SM -SN OVC018 M10/M13 A3023 RMK AO2 SLP254
                 P0001 T11001128 =
2019-01-19 10:10 METAR KPEO 191510Z AUTO 34005KT 1 1/2SM -SN BR OVC024 M10/M12 A3024 RMK AO2
                 P0000 T11001122 =
2019-01-19 10:01 METAR KPEO 191501Z AUTO VRB05KT 2SM -SN OVC024 M09/M12 A3024 RMK AO2 P0000
                 T10941122 =
2019-01-19 09:53 METAR KPEO 191453Z AUTO VRB05KT 1 3/4SM -SN BR BKN024 OVC034 M09/M12 A3024 RMK
                 AO2 SLP257 P0001 60001 T10941117 50003 =
2019-01-19 09:09 METAR KPEO 191409Z AUTO 35003KT 1SM -SN BR VV015 M09/M11 A3025 RMK AO2 P0001
                 T10941111 RVRNO =
2019-01-19 08:53 METAR KPEO 191353Z AUTO 01004KT 3/4SM -SN BR VV015 M09/M11 A3025 RMK AO2 SLP258
                 P0000 T10891111 RVRNO =
2019-01-19 08:14 METAR KPEO 191314Z AUTO 00000KT 1SM -SN BR SCT012 OVC020 M09/M11 A3024 RMK AO2
                 P0000 T10891111 RVRNO =
2019-01-19 07:55 METAR KPEO 191255Z AUTO VRB03KT 1 3/4SM -SN BR OVC010 M09/M11 A3024 RMK AO2
                 P0000 T10891111 =
2019-01-19 07:53 METAR KPEO 191253Z AUTO VRB03KT 3SM -SN BR OVC010 M09/M11 A3024 RMK AO2 SNB48
                 SLP254 P0000 T10891111 =
2019-01-19 06:53 METAR KPEO 191153Z AUTO 34006KT 10SM OVC010 M09/M11 A3023 RMK AO2 SLP252 60000
                 T10891111 11028 21089 53008 =
2019-01-19 05:53 METAR KPEO 191053Z AUTO 35004KT 10SM OVC010 M08/M11 A3019 RMK AO2 SNE03 SLP240
                 P0000 T10831106 =
2019-01-19 05:25 METAR KPEO 191025Z AUTO 36005KT 10SM BKN010 OVC023 M08/M11 A3020 RMK AO2 SNE03
                 P0000 T10831106 =
2019-01-19 04:53 METAR KPEO 190953Z AUTO VRB06KT 4SM -SN BR OVC023 M08/M10 A3020 RMK AO2 SNB15
                 SLP242 P0000 T10781100 =
2019-01-19 04:48 METAR KPEO 190948Z AUTO 02005KT 4SM -SN BR OVC023 M07/M09 A3020 RMK AO2 SNB15
                 P0000 =
2019-01-19 04:40 METAR KPEO 190940Z AUTO 01007KT 2 1/2SM -SN BR OVC023 M07/M09 A3020 RMK AO2
                 SNB15 P0000 T10721094 =
2019-01-19 04:34 METAR KPEO 190934Z AUTO 01006KT 1 3/4SM -SN BR OVC021 M07/M09 A3020 RMK AO2
                 SNB15 P0000 T10721094 =
2019-01-19 04:26 METAR KPEO 190926Z AUTO 36008KT 2SM -SN BR FEW012 OVC021 M07/M09 A3020 RMK AO2
                 SNB15 P0000 T10671089 =
2019-01-19 04:14 METAR KPEO 190914Z AUTO 36008KT 10SM BKN023 OVC039 M06/M09 A3019 RMK AO2
                 T10611089 =
2019-01-19 03:53 METAR KPEO 190853Z AUTO 28006KT 10SM OVC039 M04/M08 A3019 RMK AO2 SLP237 60000
                 T10391083 53004 =
2019-01-19 02:53 METAR KPEO 190753Z AUTO 28004KT 10SM OVC037 M03/M08 A3019 RMK AO2 SLP238
                 T10331083 =

Support USWX by starting your Amazon purchase here.